Terminal Aerodrome Forecast
Issued by NWS Bismarck, ND

Home | Current Version | Previous Version | Graphics & Text | Print | Product List | Glossary On
Versions: 1 2 3 4 5 6 7 8 9 10 11 12 13 14 15 16
000
FTUS43 KBIS 191700
TAFISN
TAF
KISN 191722Z 1918/2018 17015G22KT P6SM FEW060 SCT100
     FM192100 22015G25KT P6SM SCT060 SCT100
     FM200200 24009KT P6SM SCT100
     FM200500 28009KT P6SM SCT080
     FM201500 26015G25KT P6SM SCT080=

USA.gov is the U.S. government's official web portal to all federal, state and local government web resources and services.